Time;durP1;ratioP1;P1;durP2;ratioP2;P2;SDS_P1;SDS_P2;PMS_P1;PMS_P2;Temp;Humidity;BMP_temperature;BMP_pressure;BME280_temperature;BME280_humidity;BME280_pressure;Samples;Min_cycle;Max_cycle;Signal;HPM_P1;HPM_P2
2022/08/14 00:02:19;;;;;;;4.40;4.03;;;;;19.30;98536.00;;;;16714564;28;20293;-51
2022/08/14 00:10:22;;;;;;;4.33;4.03;;;;;19.60;98514.00;;;;16717083;28;20225;-50
2022/08/14 00:18:27;;;;;;;4.37;4.03;;;;;19.90;98484.00;;;;16716716;28;20250;-50
2022/08/14 00:26:29;;;;;;;4.20;3.90;;;;;19.10;98489.00;;;;16728207;28;20390;-50
2022/08/14 00:34:33;;;;;;;4.30;4.00;;;;;19.60;98472.00;;;;16728724;28;20313;-50
2022/08/14 00:42:35;;;;;;;4.80;4.10;;;;;19.70;98449.00;;;;16727934;28;20220;-50
2022/08/14 00:50:39;;;;;;;5.20;4.80;;;;;19.80;98453.00;;;;16727647;28;20230;-51
2022/08/14 00:58:42;;;;;;;5.27;4.77;;;;;19.30;98449.00;;;;16727649;28;20313;-50
2022/08/14 01:06:45;;;;;;;6.27;5.67;;;;;19.00;98452.00;;;;16726354;28;20269;-51
2022/08/14 01:14:50;;;;;;;5.33;4.93;;;;;19.70;98451.00;;;;16727229;28;20528;-51
2022/08/14 01:22:54;;;;;;;5.97;5.43;;;;;18.70;98442.00;;;;16725556;28;20228;-49
2022/08/14 01:30:57;;;;;;;7.40;6.70;;;;;18.90;98441.00;;;;16725410;28;20313;-50
2022/08/14 01:39:01;;;;;;;10.77;9.77;;;;;18.60;98450.00;;;;16724511;28;20261;-50
2022/08/14 01:47:11;;;;;;;6.80;6.10;;;;;18.30;98437.00;;;;16723696;28;20220;-49
2022/08/14 01:55:16;;;;;;;6.37;4.13;;;;;18.40;98426.00;;;;16723315;28;20240;-50
2022/08/14 02:03:19;;;;;;;4.53;4.23;;;;;18.10;98425.00;;;;16723522;28;20256;-50
2022/08/14 02:11:23;;;;;;;5.43;4.93;;;;;18.30;98408.00;;;;16701749;28;20313;-50
2022/08/14 02:19:27;;;;;;;4.80;4.50;;;;;18.40;98414.00;;;;16656754;28;20191;-50
2022/08/14 02:27:31;;;;;;;4.70;4.40;;;;;18.10;98419.00;;;;16656321;28;20230;-49
2022/08/14 02:35:33;;;;;;;4.50;4.10;;;;;18.70;98418.00;;;;16655202;28;20627;-49
2022/08/14 02:43:38;;;;;;;5.20;4.80;;;;;18.30;98391.00;;;;16654625;28;20583;-50
2022/08/14 02:51:40;;;;;;;4.93;4.53;;;;;18.50;98368.00;;;;16655067;28;20765;-50
2022/08/14 02:59:44;;;;;;;4.97;4.60;;;;;18.60;98363.00;;;;16652127;28;20281;-49
2022/08/14 03:07:46;;;;;;;5.40;4.77;;;;;17.80;98354.00;;;;16653423;28;20355;-51
2022/08/14 03:15:52;;;;;;;5.10;4.70;;;;;17.80;98361.00;;;;16652915;28;20232;-50
2022/08/14 03:24:01;;;;;;;5.73;5.23;;;;;17.70;98351.00;;;;16714215;22;20259;-50
2022/08/14 03:32:06;;;;;;;4.70;4.40;;;;;17.60;98340.00;;;;16783175;28;20235;-50
2022/08/14 03:40:10;;;;;;;4.70;4.40;;;;;18.20;98325.00;;;;16775293;28;20285;-51
2022/08/14 03:48:18;;;;;;;5.50;4.97;;;;;18.00;98326.00;;;;16782046;28;20311;-50
2022/08/14 03:56:20;;;;;;;5.07;4.57;;;;;17.30;98327.00;;;;16785167;28;20221;-51
2022/08/14 04:04:24;;;;;;;5.80;5.40;;;;;17.70;98330.00;;;;16795054;28;20307;-50
2022/08/14 04:12:29;;;;;;;4.87;4.47;;;;;17.00;98326.00;;;;16794731;28;20213;-50
2022/08/14 04:20:33;;;;;;;4.50;4.20;;;;;17.70;98319.00;;;;16794102;28;20232;-49
2022/08/14 04:28:39;;;;;;;4.40;4.10;;;;;16.90;98318.00;;;;16792370;28;20315;-48
2022/08/14 04:44:59;;;;;;;4.97;4.67;;;;;17.10;98315.00;;;;16789903;28;20790;-48
2022/08/14 04:53:03;;;;;;;4.70;4.40;;;;;17.30;98306.00;;;;16792345;28;20338;-48
2022/08/14 05:01:09;;;;;;;5.27;4.87;;;;;17.70;98326.00;;;;16791934;28;20276;-50
2022/08/14 05:09:13;;;;;;;6.90;5.37;;;;;18.40;98320.00;;;;16790948;28;20295;-51
2022/08/14 05:17:15;;;;;;;8.20;6.30;;;;;19.50;98322.00;;;;16790792;28;20354;-50
2022/08/14 05:25:19;;;;;;;6.40;5.90;;;;;19.70;98316.00;;;;16789774;28;20304;-50
2022/08/14 05:33:23;;;;;;;7.93;6.33;;;;;19.70;98310.00;;;;16789495;28;20752;-51
2022/08/14 05:41:27;;;;;;;9.80;7.00;;;;;19.80;98296.00;;;;16788773;28;20194;-50
2022/08/14 05:49:30;;;;;;;7.23;6.73;;;;;20.00;98302.00;;;;16788901;28;20249;-51
2022/08/14 05:57:34;;;;;;;6.93;6.37;;;;;20.10;98291.00;;;;16787437;28;20259;-50
2022/08/14 06:05:36;;;;;;;7.07;6.57;;;;;20.00;98297.00;;;;16787290;28;20668;-50
2022/08/14 06:13:42;;;;;;;7.43;6.60;;;;;20.30;98285.00;;;;16786739;28;20237;-50
2022/08/14 06:21:44;;;;;;;7.30;6.80;;;;;20.60;98282.00;;;;16786509;28;20296;-50
2022/08/14 06:29:48;;;;;;;6.33;5.70;;;;;20.80;98274.00;;;;16786917;28;20255;-48
2022/08/14 06:37:52;;;;;;;6.97;6.47;;;;;21.20;98261.00;;;;16785921;28;20674;-51
2022/08/14 06:45:56;;;;;;;6.40;5.93;;;;;21.70;98245.00;;;;16785029;28;20293;-51
2022/08/14 06:53:59;;;;;;;6.50;6.10;;;;;22.10;98229.00;;;;16785194;28;20629;-50
2022/08/14 07:10:23;;;;;;;6.53;5.90;;;;;22.70;98221.00;;;;16783808;28;20304;-49
2022/08/14 07:18:29;;;;;;;7.00;6.40;;;;;23.20;98195.00;;;;16784842;28;20221;-49
2022/08/14 07:26:31;;;;;;;6.03;5.60;;;;;23.60;98206.00;;;;16784783;28;20630;-49
2022/08/14 07:34:35;;;;;;;5.37;4.97;;;;;24.30;98189.00;;;;16782748;28;20519;-49
2022/08/14 07:42:37;;;;;;;5.70;5.20;;;;;24.50;98199.00;;;;16782630;28;20426;-50
2022/08/14 07:50:41;;;;;;;4.10;3.67;;;;;25.50;98204.00;;;;16782656;28;20592;-50
2022/08/14 07:58:44;;;;;;;4.80;4.07;;;;;25.70;98196.00;;;;16781716;28;20224;-50
2022/08/14 08:06:47;;;;;;;3.90;3.60;;;;;25.80;98198.00;;;;16781910;28;20655;-50
2022/08/14 08:14:51;;;;;;;4.03;3.00;;;;;26.80;98196.00;;;;16780938;28;20225;-51
2022/08/14 08:22:57;;;;;;;4.13;3.80;;;;;27.20;98185.00;;;;16781121;28;20221;-51
2022/08/14 08:31:02;;;;;;;4.07;3.77;;;;;26.80;98190.00;;;;16781579;28;20311;-50
2022/08/14 08:39:05;;;;;;;3.80;3.50;;;;;27.00;98179.00;;;;16781009;28;20296;-50
2022/08/14 08:47:08;;;;;;;3.67;3.37;;;;;27.60;98173.00;;;;16790812;28;20306;-50
2022/08/14 08:55:12;;;;;;;3.67;3.37;;;;;28.20;98170.00;;;;16792198;28;20278;-51
2022/08/14 09:03:16;;;;;;;3.83;3.53;;;;;28.50;98162.00;;;;16791944;28;20734;-50
2022/08/14 09:11:23;;;;;;;5.33;3.80;;;;;28.70;98147.00;;;;16791121;28;20225;-50
2022/08/14 09:19:25;;;;;;;3.70;3.40;;;;;28.80;98144.00;;;;16790695;28;20292;-50
2022/08/14 09:27:29;;;;;;;3.67;3.37;;;;;29.60;98146.00;;;;16848033;22;20315;-52
2022/08/14 09:35:43;;;;;;;3.80;3.57;;;;;29.70;98145.00;;;;16859160;28;20229;-51
2022/08/14 09:43:54;;;;;;;3.60;3.40;;;;;29.90;98140.00;;;;16847497;28;20224;-51
2022/08/14 09:52:04;;;;;;;3.40;3.20;;;;;30.10;98128.00;;;;16856034;28;20692;-52
2022/08/14 10:00:14;;;;;;;3.37;3.07;;;;;30.40;98113.00;;;;16855925;28;20225;-52
2022/08/14 10:08:21;;;;;;;3.60;3.30;;;;;31.90;98098.00;;;;16856336;28;20208;-52
2022/08/14 10:16:29;;;;;;;3.93;3.63;;;;;32.80;98085.00;;;;16855415;28;20407;-53
2022/08/14 10:24:32;;;;;;;7.60;7.10;;;;;32.80;98076.00;;;;16855797;28;20216;-53
2022/08/14 10:32:44;;;;;;;3.43;3.23;;;;;32.50;98036.00;;;;16856064;28;20784;-50
2022/08/14 10:40:46;;;;;;;4.10;3.80;;;;;33.30;98037.00;;;;16854828;28;20558;-52
2022/08/14 10:48:59;;;;;;;3.80;3.60;;;;;32.60;98039.00;;;;16853454;28;20635;-51
2022/08/14 10:57:17;;;;;;;7.53;3.70;;;;;34.30;98026.00;;;;16853925;28;20220;-52
2022/08/14 11:05:22;;;;;;;3.50;3.30;;;;;33.50;98024.00;;;;16852800;28;20212;-53
2022/08/14 11:13:26;;;;;;;5.93;4.47;;;;;34.50;98028.00;;;;16853544;28;20319;-53
2022/08/14 11:21:30;;;;;;;3.93;3.70;;;;;33.60;98018.00;;;;16853430;28;20287;-52
2022/08/14 11:29:34;;;;;;;3.90;3.60;;;;;34.30;98024.00;;;;16851801;28;20678;-53
2022/08/14 11:37:38;;;;;;;4.07;3.60;;;;;34.20;98026.00;;;;16851161;28;20220;-52
2022/08/14 11:45:44;;;;;;;3.40;3.20;;;;;35.40;98018.00;;;;16850456;28;20312;-53
2022/08/14 11:53:53;;;;;;;3.90;3.70;;;;;34.60;98015.00;;;;16849809;28;20224;-53
2022/08/14 12:01:55;;;;;;;4.20;3.80;;;;;35.30;97990.00;;;;16850807;28;20671;-52
2022/08/14 12:09:59;;;;;;;4.23;3.97;;;;;36.70;97986.00;;;;16851188;28;20310;-52
2022/08/14 12:18:02;;;;;;;3.30;3.10;;;;;36.40;97969.00;;;;16854989;28;20224;-51
2022/08/14 12:26:07;;;;;;;3.30;3.10;;;;;35.80;97962.00;;;;16862453;28;20213;-53
2022/08/14 12:34:13;;;;;;;2.47;2.37;;;;;37.90;97960.00;;;;16861682;28;20735;-54
2022/08/14 12:42:17;;;;;;;2.97;2.77;;;;;37.80;97950.00;;;;16860867;28;20326;-53
2022/08/14 12:50:20;;;;;;;2.60;2.37;;;;;37.30;97938.00;;;;16862026;28;20299;-52
2022/08/14 12:58:28;;;;;;;2.23;2.03;;;;;37.60;97932.00;;;;16861155;28;20240;-53
2022/08/14 13:06:31;;;;;;;2.80;2.60;;;;;39.10;97926.00;;;;16860788;28;20213;-53
2022/08/14 13:14:35;;;;;;;2.70;2.50;;;;;40.20;97910.00;;;;16859228;28;20770;-52
2022/08/14 13:22:40;;;;;;;2.77;2.67;;;;;38.80;97897.00;;;;16858336;28;20565;-51
2022/08/14 13:30:45;;;;;;;3.87;2.90;;;;;37.70;97900.00;;;;16857599;28;20701;-52
2022/08/14 13:38:49;;;;;;;2.20;2.10;;;;;38.00;97894.00;;;;16858876;28;20225;-53
2022/08/14 13:46:53;;;;;;;2.80;2.63;;;;;35.20;97875.00;;;;16857705;28;20221;-52
2022/08/14 13:54:59;;;;;;;2.63;2.40;;;;;39.60;97873.00;;;;16856575;28;20233;-53
2022/08/14 14:03:06;;;;;;;2.57;2.37;;;;;40.70;97857.00;;;;16855566;28;20212;-53
2022/08/14 14:11:08;;;;;;;2.70;2.50;;;;;41.60;97846.00;;;;16856061;28;20221;-53
2022/08/14 14:19:12;;;;;;;2.30;2.10;;;;;41.80;97843.00;;;;16855066;28;20216;-52
2022/08/14 14:27:16;;;;;;;2.37;2.17;;;;;41.40;97834.00;;;;16854954;28;20236;-52
2022/08/14 14:35:19;;;;;;;2.70;2.50;;;;;39.10;97824.00;;;;16853974;28;20225;-51
2022/08/14 14:43:25;;;;;;;2.73;2.47;;;;;40.70;97832.00;;;;16852873;28;20784;-53
2022/08/14 14:51:28;;;;;;;3.03;2.67;;;;;38.80;97814.00;;;;16853177;28;20265;-53
2022/08/14 14:59:32;;;;;;;4.70;2.70;;;;;39.30;97809.00;;;;16853074;28;20853;-52
2022/08/14 15:07:36;;;;;;;2.93;2.67;;;;;40.10;97799.00;;;;16853549;28;20216;-53
2022/08/14 15:15:39;;;;;;;2.53;2.43;;;;;40.80;97797.00;;;;16852355;28;20224;-52
2022/08/14 15:23:42;;;;;;;2.30;2.20;;;;;39.60;97794.00;;;;16852682;28;20723;-52
2022/08/14 15:31:45;;;;;;;2.50;2.40;;;;;38.50;97786.00;;;;16851514;28;20248;-51
2022/08/14 15:39:49;;;;;;;2.87;2.70;;;;;38.40;97790.00;;;;16846659;28;20217;-51
2022/08/14 15:47:54;;;;;;;3.00;2.80;;;;;39.40;97784.00;;;;16849123;28;20303;-49
2022/08/14 15:55:58;;;;;;;2.30;2.20;;;;;39.60;97786.00;;;;16856261;28;20807;-52
2022/08/14 16:04:01;;;;;;;2.60;2.50;;;;;37.50;97789.00;;;;16862416;28;20297;-51
2022/08/14 16:12:05;;;;;;;2.50;2.30;;;;;38.50;97782.00;;;;16862566;28;20220;-52
2022/08/14 16:20:09;;;;;;;3.00;2.80;;;;;39.10;97780.00;;;;16863401;28;20299;-52
2022/08/14 16:28:13;;;;;;;2.83;2.63;;;;;39.40;97780.00;;;;16861255;28;20311;-52
2022/08/14 16:36:21;;;;;;;2.60;2.50;;;;;39.20;97773.00;;;;16862483;28;20248;-52
2022/08/14 16:44:26;;;;;;;2.50;2.40;;;;;38.60;97765.00;;;;16861379;28;20574;-51
2022/08/14 16:52:29;;;;;;;3.10;2.90;;;;;40.20;97762.00;;;;16860611;28;20286;-52
2022/08/14 17:00:35;;;;;;;4.33;2.43;;;;;40.20;97762.00;;;;16860104;28;20224;-51
2022/08/14 17:08:39;;;;;;;3.27;3.07;;;;;36.10;97754.00;;;;16860021;28;20299;-52
2022/08/14 17:16:46;;;;;;;3.10;2.87;;;;;33.70;97755.00;;;;16859744;28;20224;-50
2022/08/14 17:24:48;;;;;;;3.60;3.40;;;;;31.10;97759.00;;;;16859601;28;20748;-52
2022/08/14 17:32:52;;;;;;;4.00;3.50;;;;;30.80;97753.00;;;;16858761;28;20303;-51
2022/08/14 17:41:20;;;;;;;3.77;3.47;;;;;30.10;97738.00;;;;16858322;28;20842;-51
2022/08/14 17:49:25;;;;;;;4.10;3.80;;;;;29.50;97749.00;;;;16857600;28;20310;-51
2022/08/14 17:57:32;;;;;;;4.33;3.93;;;;;28.80;97748.00;;;;16856814;28;20220;-50
2022/08/14 18:05:36;;;;;;;4.00;3.70;;;;;28.30;97755.00;;;;16855768;28;20708;-51
2022/08/14 18:13:39;;;;;;;4.30;4.00;;;;;27.90;97750.00;;;;16847428;28;20704;-50
2022/08/14 18:21:44;;;;;;;4.07;3.77;;;;;28.10;97758.00;;;;16855524;28;20230;-51
2022/08/14 18:29:48;;;;;;;4.03;3.73;;;;;27.70;97760.00;;;;16855102;28;20674;-51
2022/08/14 18:38:23;;;;;;;4.37;3.97;;;;;27.40;97766.00;;;;16855001;28;20299;-51
2022/08/14 18:46:25;;;;;;;4.07;3.80;;;;;27.30;97768.00;;;;16853784;28;20300;-51
2022/08/14 18:54:30;;;;;;;4.57;4.17;;;;;27.30;97771.00;;;;16853614;28;20255;-52
2022/08/14 19:02:42;;;;;;;3.93;3.63;;;;;27.40;97789.00;;;;16853346;28;20720;-52
2022/08/14 19:10:48;;;;;;;4.90;4.50;;;;;27.30;97796.00;;;;16852685;28;20197;-51
2022/08/14 19:18:51;;;;;;;3.63;3.40;;;;;27.10;97793.00;;;;16852301;28;20299;-50
2022/08/14 19:27:16;;;;;;;3.90;3.60;;;;;26.90;97791.00;;;;16851330;28;20887;-51
2022/08/14 19:35:43;;;;;;;3.27;2.97;;;;;26.40;97799.00;;;;16851970;28;20850;-51
2022/08/14 19:43:49;;;;;;;4.07;3.77;;;;;26.10;97790.00;;;;16851090;28;20214;-49
2022/08/14 19:51:54;;;;;;;3.30;3.10;;;;;26.30;97803.00;;;;16851036;28;20208;-51
2022/08/14 20:00:07;;;;;;;3.37;3.13;;;;;26.00;97813.00;;;;16851447;28;20716;-49
2022/08/14 20:08:14;;;;;;;5.70;3.27;;;;;25.70;97819.00;;;;16852455;28;20735;-51
2022/08/14 20:16:19;;;;;;;3.63;3.17;;;;;26.50;97814.00;;;;16852900;28;20224;-51
2022/08/14 20:24:36;;;;;;;4.33;3.93;;;;;26.80;97818.00;;;;16848902;28;20234;-51
2022/08/14 20:32:46;;;;;;;3.60;3.30;;;;;26.40;97823.00;;;;16847360;28;20221;-51
2022/08/14 20:40:52;;;;;;;3.63;3.33;;;;;25.90;97834.00;;;;16853342;28;20196;-51
2022/08/14 20:49:00;;;;;;;4.00;3.63;;;;;26.20;97852.00;;;;16857402;28;20222;-51
2022/08/14 20:57:07;;;;;;;4.10;3.80;;;;;27.50;97851.00;;;;16857562;28;20315;-51
2022/08/14 21:05:11;;;;;;;4.60;4.30;;;;;26.30;97861.00;;;;16856647;28;20299;-51
2022/08/14 21:13:16;;;;;;;5.07;4.03;;;;;26.20;97867.00;;;;16856309;28;20236;-51
2022/08/14 21:21:23;;;;;;;3.77;3.47;;;;;25.30;97860.00;;;;16856420;28;20589;-51
2022/08/14 21:29:26;;;;;;;3.87;3.57;;;;;25.30;97860.00;;;;16776442;22;1350783;-48
2022/08/14 21:37:30;;;;;;;4.40;4.00;;;;;25.30;97862.00;;;;16750584;28;20597;-49
2022/08/14 21:45:33;;;;;;;5.13;3.80;;;;;25.10;97863.00;;;;16729630;28;20296;-50
2022/08/14 21:53:40;;;;;;;4.30;4.00;;;;;25.00;97874.00;;;;16722684;28;20230;-49
2022/08/14 22:01:43;;;;;;;5.10;4.30;;;;;25.10;97882.00;;;;16716477;28;20616;-49
2022/08/14 22:09:47;;;;;;;4.20;3.90;;;;;24.80;97883.00;;;;16722553;28;20312;-49
2022/08/14 22:17:50;;;;;;;4.10;3.90;;;;;24.60;97883.00;;;;16703839;28;20609;-49
2022/08/14 22:25:57;;;;;;;4.57;4.17;;;;;24.70;97877.00;;;;16721747;28;20232;-49
2022/08/14 22:34:00;;;;;;;4.10;3.80;;;;;24.50;97878.00;;;;16721480;28;20752;-50
2022/08/14 22:42:04;;;;;;;7.67;3.90;;;;;24.50;97873.00;;;;16721470;28;20632;-50
2022/08/14 22:50:09;;;;;;;4.37;4.00;;;;;25.00;97884.00;;;;16720972;28;20639;-50
2022/08/14 22:58:13;;;;;;;5.90;4.27;;;;;25.10;97887.00;;;;16720467;28;20230;-49
2022/08/14 23:06:15;;;;;;;5.30;4.90;;;;;24.60;97875.00;;;;16719763;28;20746;-50
2022/08/14 23:14:21;;;;;;;4.77;4.27;;;;;24.80;97876.00;;;;16719032;28;20363;-49
2022/08/14 23:22:26;;;;;;;5.10;4.67;;;;;24.90;97882.00;;;;16718878;28;20248;-48
2022/08/14 23:30:30;;;;;;;5.03;4.60;;;;;25.30;97887.00;;;;16719147;28;20297;-50
2022/08/14 23:38:33;;;;;;;4.40;4.10;;;;;26.40;97887.00;;;;16718394;28;20235;-49
2022/08/14 23:46:37;;;;;;;5.53;4.50;;;;;24.90;97879.00;;;;16718473;28;20737;-50
2022/08/14 23:54:40;;;;;;;4.97;4.57;;;;;24.10;97879.00;;;;16717670;28;20300;-50
